Rocky Point, NC (28457)

11:20 AM EST on February 10, 2016 (GMT -0500)
Rocky Point | | Change Station
CLOSE
Current Station
Personal Weather Station
Location: Rocky Point, NC
Elevation: 30 ft
Nearby Weather Stations
Active Advisory: Flood Warning

Elev 30 ft 34.43 °N, 77.90 °W | Updated 56 seconds ago

Clear
Clear
41.4 °F
Feels Like 37 °F
N
6.3
Wind Variable Wind from NW

Today
High -- | Low -- °F
--% Chance of Precip.
Yesterday
High -- | Low -- °F
Precip. -- in
Pressure 29.97 in
Visibility 10.0 miles
Clouds Mostly Cloudy 4100 ft
Windchill 37 °F
Dew Point 22 °F
Humidity 45%
Rainfall 0.00 in
Snow Depth Not available.
7:02 AM 5:49 PM
Waxing Crescent, 6% visible
METAR KILM 101553Z 28015KT 10SM BKN041 04/M06 A2997 RMK AO2 SLP148 T00441061
Pressure 29.97 in
Visibility 10.0 miles
Clouds Mostly Cloudy 4100 ft
Windchill 37 °F
Dew Point 22 °F
Humidity 45%
Rainfall 0.00 in
Snow Depth Not available.
7:02 AM 5:49 PM
Waxing Crescent, 6% visible
METAR KILM 101553Z 28015KT 10SM BKN041 04/M06 A2997 RMK AO2 SLP148 T00441061

10-Day Weather Forecast

Almanac

Astronomy

Feb. 10, 2016 Rise Set
Actual Time
Civil Twilight
Nautical Twilight
Astronomical Twilight
Moon
Length of Visible Light
Length of Day
Tomorrow will be .
, % of the Moon is Illuminated

Today's Extremes

State Highs State Lows

Community

WunderPhotos

Upload Photos

1,891,864 photos uploaded!

WunderBlog® & News

Nearby

Air Quality

  Air Quality AQ Index Pollutant
Not available.

Snow Depth

Station Depth Elevation

Earthquake Activity

City Distance Mag. Time & Date
Minimum magnitude displayed is 2.5.

Coastal Water Temperatures

Place Temperature

Stations

Nearby Weather Stations

Station Location Temp. Windchill Dew Point Humidity Wind Precip. Elev Updated Type
                   

Watches & Warnings

Flood Warning
Issued: 10:09 AM EST Feb. 10, 2016 – National Weather Service

The Flood Warning continues for
the Northeast Cape fear near Burgaw.
* Until further notice.
* At 9:30 am Wednesday the stage was 14.61 feet.
* Flood stage is 10.0 feet.
* Moderate flooding is occurring and moderate flooding is forecast.
* Forecast... the river will fall to a stage of 14.3 feet by tomorrow morning.
* Impact... at 14.0 feet... floodwaters cause portions of Shaw Highway to be closed
between Carl Meeks Road and Lillington Lane. White Stocking Road is also
closed from chorley Road to Mack Williams Lane. Flooding worsens on highways
210 and 53 but roads remain open.


Lat... Lon 3472 7798 3472 7786 3460 7776 3445 7779
          3444 7788 3457 7788